Time;durP1;ratioP1;P1;durP2;ratioP2;P2;SDS_P1;SDS_P2;PMS_P1;PMS_P2;Temp;Humidity;BMP_temperature;BMP_pressure;BME280_temperature;BME280_humidity;BME280_pressure;Samples;Min_cycle;Max_cycle;Signal;HPM_P1;HPM_P2
2024/01/09 00:00:36;;;;;;;19.35;10.45;;;-4.90;1.00;;;;;;7378131;19;20018;-69
2024/01/09 00:03:07;;;;;;;20.40;9.65;;;-4.90;1.00;;;;;;7378821;19;20014;-69
2024/01/09 00:05:39;;;;;;;19.33;10.23;;;-4.90;1.00;;;;;;7377765;19;20077;-69
2024/01/09 00:08:10;;;;;;;21.52;11.15;;;-4.90;1.00;;;;;;7379475;19;20015;-69
2024/01/09 00:10:40;;;;;;;20.70;9.93;;;-4.90;1.00;;;;;;7378076;19;20010;-68
2024/01/09 00:13:10;;;;;;;24.65;10.90;;;-5.00;1.00;;;;;;7378436;19;20028;-68
2024/01/09 00:15:40;;;;;;;17.75;10.30;;;-4.90;1.00;;;;;;7377183;19;20137;-69
2024/01/09 00:18:10;;;;;;;25.60;11.07;;;-5.00;1.00;;;;;;7379010;19;20013;-69
2024/01/09 00:20:43;;;;;;;23.00;11.18;;;-5.00;1.00;;;;;;7376851;19;20049;-69
2024/01/09 00:23:13;;;;;;;22.88;10.20;;;-5.10;1.00;;;;;;7379363;19;20018;-69
2024/01/09 00:25:43;;;;;;;18.02;9.73;;;-5.20;1.00;;;;;;7378119;19;20003;-69
2024/01/09 00:28:13;;;;;;;20.67;10.73;;;-5.20;1.00;;;;;;7380322;19;20014;-70
2024/01/09 00:30:44;;;;;;;21.83;10.15;;;-5.20;1.00;;;;;;7378715;19;20010;-69
2024/01/09 00:33:14;;;;;;;20.70;10.02;;;-5.20;1.00;;;;;;7375820;19;20002;-69
2024/01/09 00:35:47;;;;;;;22.42;11.27;;;-5.20;1.00;;;;;;7374834;19;20374;-68
2024/01/09 00:38:17;;;;;;;18.60;9.75;;;-5.20;1.00;;;;;;7378553;19;20006;-69
2024/01/09 00:40:47;;;;;;;23.80;11.15;;;-5.20;1.00;;;;;;7372621;19;20070;-70
2024/01/09 00:43:17;;;;;;;24.85;11.20;;;-5.20;1.00;;;;;;7378535;19;20015;-69
2024/01/09 00:45:47;;;;;;;21.73;10.98;;;-5.30;1.00;;;;;;7382165;19;20014;-70
2024/01/09 00:48:17;;;;;;;21.40;11.45;;;-5.30;1.00;;;;;;7383975;19;20011;-68
2024/01/09 00:50:50;;;;;;;22.50;11.00;;;-5.40;1.00;;;;;;7383190;19;20026;-68
2024/01/09 00:53:21;;;;;;;25.60;11.95;;;-5.30;1.00;;;;;;7381801;19;20010;-69
2024/01/09 00:55:51;;;;;;;21.45;10.05;;;-5.30;1.00;;;;;;7382124;19;20522;-69
2024/01/09 00:58:21;;;;;;;19.15;10.38;;;-5.40;1.00;;;;;;7384086;19;20017;-70
2024/01/09 01:00:51;;;;;;;22.33;10.73;;;-5.40;1.00;;;;;;7382312;19;20011;-70
2024/01/09 01:03:21;;;;;;;20.92;10.75;;;-5.40;1.00;;;;;;7383274;19;20010;-70
2024/01/09 01:05:54;;;;;;;21.30;11.10;;;-5.40;1.00;;;;;;7381749;19;20018;-69
2024/01/09 01:08:24;;;;;;;19.05;9.88;;;-5.40;1.00;;;;;;7383128;19;20019;-69
2024/01/09 01:10:55;;;;;;;24.42;11.40;;;-5.40;1.00;;;;;;7383277;19;20063;-69
2024/01/09 01:13:25;;;;;;;21.10;10.52;;;-5.40;1.00;;;;;;7384121;19;20024;-70
2024/01/09 01:15:55;;;;;;;21.75;11.27;;;-5.40;1.00;;;;;;7382953;19;20025;-69
2024/01/09 01:18:25;;;;;;;22.48;10.77;;;-5.50;1.00;;;;;;7384364;19;20026;-70
2024/01/09 01:20:57;;;;;;;22.63;11.38;;;-5.50;1.00;;;;;;7382338;19;20010;-70
2024/01/09 01:23:27;;;;;;;21.75;10.55;;;-5.40;1.00;;;;;;7382690;19;20359;-69
2024/01/09 01:25:57;;;;;;;22.23;11.05;;;-5.40;1.00;;;;;;7382311;19;20011;-69
2024/01/09 01:28:29;;;;;;;20.00;10.48;;;-5.50;1.00;;;;;;7383394;19;20014;-70
2024/01/09 01:30:59;;;;;;;24.88;12.15;;;-5.50;1.00;;;;;;7382195;19;20015;-68
2024/01/09 01:33:29;;;;;;;25.17;11.63;;;-5.50;1.00;;;;;;7381937;19;20018;-70
2024/01/09 01:36:02;;;;;;;19.65;10.50;;;-5.50;1.00;;;;;;7382859;19;20018;-71
2024/01/09 01:38:32;;;;;;;22.23;10.88;;;-5.60;1.00;;;;;;7382490;19;20014;-70
2024/01/09 01:41:02;;;;;;;23.70;11.85;;;-5.60;1.00;;;;;;7382233;19;20006;-70
2024/01/09 01:43:32;;;;;;;22.63;11.00;;;-5.60;1.00;;;;;;7382761;19;20035;-69
2024/01/09 01:46:03;;;;;;;21.85;11.52;;;-5.70;1.00;;;;;;7382238;19;20086;-70
2024/01/09 01:48:34;;;;;;;22.13;11.82;;;-5.70;1.00;;;;;;7382268;19;20014;-70
2024/01/09 01:51:08;;;;;;;20.23;10.63;;;-5.70;1.00;;;;;;7382808;19;20459;-69
2024/01/09 01:53:38;;;;;;;25.70;11.10;;;-5.70;1.00;;;;;;7383721;19;20085;-69
2024/01/09 01:56:06;;;;;;;22.42;11.60;;;-5.70;1.00;;;;;;7380756;19;20022;-69
2024/01/09 01:58:38;;;;;;;24.90;11.63;;;-5.70;1.00;;;;;;7382132;19;20071;-69
2024/01/09 02:01:08;;;;;;;22.48;11.50;;;-5.80;1.00;;;;;;7385196;19;20050;-69
2024/01/09 02:03:39;;;;;;;23.70;11.50;;;-5.80;1.00;;;;;;7392288;19;20031;-68
2024/01/09 02:06:13;;;;;;;24.77;12.45;;;-5.80;1.00;;;;;;7386805;19;20524;-71
2024/01/09 02:08:46;;;;;;;24.45;10.68;;;-5.80;1.00;;;;;;7381296;19;20010;-70
2024/01/09 02:11:17;;;;;;;26.10;11.82;;;-5.80;1.00;;;;;;7378557;19;20017;-70
2024/01/09 02:13:47;;;;;;;24.20;11.85;;;-5.80;1.00;;;;;;7383185;19;20357;-69
2024/01/09 02:16:17;;;;;;;24.15;12.05;;;-5.80;1.00;;;;;;7382567;19;20007;-70
2024/01/09 02:18:47;;;;;;;24.20;10.48;;;-5.80;1.00;;;;;;7380203;19;20071;-70
2024/01/09 02:21:20;;;;;;;28.65;12.55;;;-5.80;1.00;;;;;;7382469;19;20385;-69
2024/01/09 02:23:51;;;;;;;22.73;11.20;;;-5.80;1.00;;;;;;7380559;19;20298;-70
2024/01/09 02:26:23;;;;;;;26.58;11.88;;;-5.80;1.00;;;;;;7380735;19;20016;-70
2024/01/09 02:29:19;;;;;;;22.33;10.70;;;-5.70;1.00;;;;;;7379204;19;20006;-70
2024/01/09 02:31:52;;;;;;;24.15;12.35;;;-5.70;1.00;;;;;;7376409;19;20472;-71
2024/01/09 02:34:23;;;;;;;23.67;12.43;;;-5.70;1.00;;;;;;7380515;19;20043;-70
2024/01/09 02:36:54;;;;;;;24.95;11.38;;;-5.70;1.00;;;;;;7381076;19;20486;-69
2024/01/09 02:39:24;;;;;;;29.83;11.00;;;-5.70;1.00;;;;;;7380786;19;20011;-69
2024/01/09 02:41:54;;;;;;;22.05;11.43;;;-5.80;1.00;;;;;;7382186;19;20033;-69
2024/01/09 02:44:24;;;;;;;22.42;11.98;;;-5.70;1.00;;;;;;7380288;19;20044;-69
2024/01/09 02:46:56;;;;;;;26.23;11.35;;;-5.70;1.00;;;;;;7380084;19;20595;-69
2024/01/09 02:49:26;;;;;;;24.88;11.68;;;-5.60;1.00;;;;;;7380105;19;20514;-69
2024/01/09 02:51:57;;;;;;;21.05;11.43;;;-5.60;1.00;;;;;;7380431;19;20393;-70
2024/01/09 02:54:27;;;;;;;23.40;10.95;;;-5.70;1.00;;;;;;7380465;19;20074;-70
2024/01/09 02:56:57;;;;;;;20.52;10.60;;;-5.70;1.00;;;;;;7380552;19;20018;-69
2024/01/09 02:59:29;;;;;;;21.35;11.05;;;-5.70;1.00;;;;;;7379571;19;20078;-70
2024/01/09 03:02:02;;;;;;;23.10;10.57;;;-5.70;1.00;;;;;;7380151;19;20030;-69
2024/01/09 03:04:32;;;;;;;19.95;10.95;;;-5.70;1.00;;;;;;7379773;19;20018;-70
2024/01/09 03:07:02;;;;;;;25.48;11.80;;;-5.70;1.00;;;;;;7375451;19;20530;-68
2024/01/09 03:09:34;;;;;;;21.63;10.02;;;-5.80;1.00;;;;;;7378528;19;20014;-69
2024/01/09 03:12:04;;;;;;;24.65;10.65;;;-5.80;1.00;;;;;;7380273;19;20021;-70
2024/01/09 03:14:34;;;;;;;21.67;10.70;;;-5.80;1.00;;;;;;7379649;19;20447;-69
2024/01/09 03:17:07;;;;;;;26.80;12.02;;;-5.90;1.00;;;;;;7380171;19;20006;-70
2024/01/09 03:19:37;;;;;;;18.63;10.93;;;-5.90;1.00;;;;;;7379272;19;20027;-70
2024/01/09 03:22:07;;;;;;;24.13;11.02;;;-5.90;1.00;;;;;;7380657;19;20006;-70
2024/01/09 03:24:37;;;;;;;20.48;11.05;;;-5.90;1.00;;;;;;7378746;19;20021;-70
2024/01/09 03:27:07;;;;;;;22.00;11.18;;;-5.90;1.00;;;;;;7380089;19;20010;-69
2024/01/09 03:29:37;;;;;;;22.48;10.50;;;-6.00;1.00;;;;;;7378675;19;20015;-69
2024/01/09 03:32:10;;;;;;;20.45;10.23;;;-6.00;1.00;;;;;;7379668;19;20027;-69
2024/01/09 03:34:42;;;;;;;24.92;10.70;;;-6.00;1.00;;;;;;7379056;19;20011;-70
2024/01/09 03:37:13;;;;;;;21.67;11.60;;;-6.00;1.00;;;;;;7378768;19;20043;-69
2024/01/09 03:39:43;;;;;;;23.75;10.40;;;-5.90;1.00;;;;;;7377686;19;20014;-69
2024/01/09 03:42:13;;;;;;;19.08;10.32;;;-6.00;1.00;;;;;;7377352;19;20014;-69
2024/01/09 03:44:43;;;;;;;24.15;11.85;;;-5.90;1.00;;;;;;7377793;19;20102;-68
2024/01/09 03:47:16;;;;;;;23.80;10.73;;;-5.90;1.00;;;;;;7378821;19;20010;-69
2024/01/09 03:49:46;;;;;;;22.60;11.43;;;-5.90;1.00;;;;;;7378651;19;20399;-69
2024/01/09 03:52:16;;;;;;;21.58;10.48;;;-5.90;1.00;;;;;;7380656;19;20007;-69
2024/01/09 03:54:46;;;;;;;20.63;9.43;;;-5.90;1.00;;;;;;7375997;19;20496;-69
2024/01/09 03:57:17;;;;;;;19.08;10.65;;;-5.90;1.00;;;;;;7380215;19;20017;-69
2024/01/09 03:59:47;;;;;;;23.08;11.35;;;-5.80;1.00;;;;;;7377740;19;20708;-69
2024/01/09 04:02:20;;;;;;;20.58;10.05;;;-5.80;1.00;;;;;;7377926;19;20512;-69
2024/01/09 04:04:50;;;;;;;22.95;10.55;;;-5.80;1.00;;;;;;7377547;19;20051;-69
2024/01/09 04:07:20;;;;;;;21.10;10.65;;;-5.80;1.00;;;;;;7379034;19;20010;-70
2024/01/09 04:09:50;;;;;;;18.13;10.30;;;-5.80;1.00;;;;;;7378222;19;20093;-68
2024/01/09 04:12:20;;;;;;;20.17;9.90;;;-5.90;1.00;;;;;;7379044;19;20027;-69
2024/01/09 04:14:50;;;;;;;21.90;10.65;;;-5.90;1.00;;;;;;7377700;19;20010;-69
2024/01/09 04:17:23;;;;;;;23.70;11.25;;;-5.90;1.00;;;;;;7378206;19;20019;-69
2024/01/09 04:19:53;;;;;;;20.25;10.82;;;-5.90;1.00;;;;;;7377601;19;20026;-70
2024/01/09 04:22:23;;;;;;;24.27;10.52;;;-5.90;1.00;;;;;;7378588;19;20654;-69
2024/01/09 04:24:53;;;;;;;25.30;11.02;;;-5.90;1.00;;;;;;7377409;19;20804;-69
2024/01/09 04:27:23;;;;;;;23.15;11.57;;;-5.90;1.00;;;;;;7376925;19;20028;-68
2024/01/09 04:29:53;;;;;;;23.02;11.13;;;-5.90;1.00;;;;;;7380441;19;20014;-69
2024/01/09 04:32:26;;;;;;;23.23;10.82;;;-6.00;1.00;;;;;;7382926;19;20014;-69
2024/01/09 04:34:57;;;;;;;22.60;11.98;;;-6.10;1.00;;;;;;7376262;19;20038;-70
2024/01/09 04:37:27;;;;;;;24.38;11.63;;;-6.10;1.00;;;;;;7376581;19;20365;-69
2024/01/09 04:39:57;;;;;;;22.60;11.30;;;-6.10;1.00;;;;;;7376461;19;20078;-69
2024/01/09 04:42:27;;;;;;;25.80;11.88;;;-6.20;1.00;;;;;;7376406;19;20139;-69
2024/01/09 04:44:58;;;;;;;23.05;11.52;;;-6.20;1.00;;;;;;7377167;19;20398;-70
2024/01/09 04:47:30;;;;;;;22.40;11.50;;;-6.20;1.00;;;;;;7378065;19;20483;-70
2024/01/09 04:50:00;;;;;;;24.98;12.10;;;-6.20;1.00;;;;;;7376057;19;20912;-69
2024/01/09 04:52:31;;;;;;;23.25;10.65;;;-6.30;1.00;;;;;;7378597;19;20020;-69
2024/01/09 04:55:01;;;;;;;26.40;12.32;;;-6.30;1.00;;;;;;7376321;19;20020;-70
2024/01/09 04:57:31;;;;;;;22.40;10.85;;;-6.30;1.00;;;;;;7376968;19;20358;-69
2024/01/09 05:00:01;;;;;;;26.92;11.80;;;-6.30;1.00;;;;;;7376786;19;20015;-70
2024/01/09 05:02:33;;;;;;;23.83;10.82;;;-6.40;1.00;;;;;;7376832;19;20010;-71
2024/01/09 05:05:04;;;;;;;24.13;10.95;;;-6.40;1.00;;;;;;7376381;19;20007;-70
2024/01/09 05:07:34;;;;;;;17.75;9.68;;;-6.30;1.00;;;;;;7377030;19;20011;-70
2024/01/09 05:10:04;;;;;;;24.38;12.35;;;-6.40;1.00;;;;;;7376857;19;20010;-70
2024/01/09 05:12:34;;;;;;;26.75;11.60;;;-6.40;1.00;;;;;;7375896;19;20086;-70
2024/01/09 05:15:04;;;;;;;23.25;11.55;;;-6.40;1.00;;;;;;7376359;19;20024;-70
2024/01/09 05:17:38;;;;;;;23.70;11.05;;;-6.30;1.00;;;;;;7377468;19;20103;-69
2024/01/09 05:20:09;;;;;;;26.20;11.77;;;-6.20;1.00;;;;;;7376098;19;20767;-70
2024/01/09 05:22:40;;;;;;;26.63;12.02;;;-6.20;1.00;;;;;;7377781;19;20027;-71
2024/01/09 05:25:10;;;;;;;23.08;10.75;;;-6.20;1.00;;;;;;7377668;19;20398;-70
2024/01/09 05:27:40;;;;;;;29.77;11.63;;;-6.20;1.00;;;;;;7376088;19;20011;-70
2024/01/09 05:30:11;;;;;;;25.85;12.20;;;-6.20;1.00;;;;;;7378251;19;20014;-71
2024/01/09 05:32:44;;;;;;;27.60;12.60;;;-6.30;1.00;;;;;;7382416;19;20450;-69
2024/01/09 05:35:14;;;;;;;24.15;10.20;;;-6.40;1.00;;;;;;7380573;19;20018;-70
2024/01/09 05:37:45;;;;;;;21.10;10.52;;;-6.40;1.00;;;;;;7383113;19;20018;-68
2024/01/09 05:40:15;;;;;;;24.30;11.88;;;-6.40;1.00;;;;;;7383262;19;20006;-70
2024/01/09 05:42:45;;;;;;;20.60;10.27;;;-6.40;1.00;;;;;;7382553;19;20086;-69
2024/01/09 05:45:17;;;;;;;22.90;10.85;;;-6.40;1.00;;;;;;7381533;19;20014;-70
2024/01/09 05:47:49;;;;;;;25.85;11.40;;;-6.40;1.00;;;;;;7382212;19;20035;-68
2024/01/09 05:50:21;;;;;;;24.08;10.63;;;-6.40;1.00;;;;;;7378284;19;20034;-70
2024/01/09 05:52:51;;;;;;;25.77;11.30;;;-6.40;1.00;;;;;;7379574;19;20014;-70
2024/01/09 05:55:21;;;;;;;27.02;11.82;;;-6.50;1.00;;;;;;7381005;19;20415;-71
2024/01/09 05:57:52;;;;;;;28.63;12.35;;;-6.40;1.00;;;;;;7381811;19;20014;-69
2024/01/09 06:00:22;;;;;;;22.23;11.48;;;-6.50;1.00;;;;;;7381291;19;20398;-70
2024/01/09 06:02:55;;;;;;;28.30;12.07;;;-6.40;1.00;;;;;;7382046;19;20018;-69
2024/01/09 06:05:25;;;;;;;23.77;11.32;;;-6.40;1.00;;;;;;7381688;19;20036;-69
2024/01/09 06:07:55;;;;;;;21.42;9.95;;;-6.40;1.00;;;;;;7381497;19;20367;-70
2024/01/09 06:10:25;;;;;;;21.67;10.85;;;-6.50;1.00;;;;;;7379087;19;20110;-68
2024/01/09 06:12:55;;;;;;;25.58;11.70;;;-6.40;1.00;;;;;;7380764;19;20018;-70
2024/01/09 06:15:25;;;;;;;24.20;11.05;;;-6.50;1.00;;;;;;7380784;19;20029;-69
2024/01/09 06:17:58;;;;;;;25.13;11.57;;;-6.50;1.00;;;;;;7380859;19;20010;-70
2024/01/09 06:20:28;;;;;;;23.52;10.50;;;-6.40;1.00;;;;;;7379853;19;20405;-70
2024/01/09 06:22:59;;;;;;;27.52;11.95;;;-6.50;1.00;;;;;;7380573;19;20478;-70
2024/01/09 06:25:29;;;;;;;25.45;11.10;;;-6.50;1.00;;;;;;7380531;19;20025;-70
2024/01/09 06:27:59;;;;;;;22.70;11.65;;;-6.40;1.00;;;;;;7380055;19;20025;-69
2024/01/09 06:30:30;;;;;;;21.48;10.73;;;-6.30;1.00;;;;;;7380190;19;20515;-70
2024/01/09 06:33:02;;;;;;;22.33;11.63;;;-6.40;1.00;;;;;;7380266;19;20100;-68
2024/01/09 06:35:33;;;;;;;23.17;11.77;;;-6.40;1.00;;;;;;7378997;19;20030;-71
2024/01/09 06:38:03;;;;;;;23.60;9.82;;;-6.40;1.00;;;;;;7379292;19;20018;-69
2024/01/09 06:40:33;;;;;;;24.95;11.10;;;-6.40;1.00;;;;;;7380040;19;20023;-68
2024/01/09 06:43:05;;;;;;;20.77;10.57;;;-6.40;1.00;;;;;;7377573;19;20006;-68
2024/01/09 06:45:35;;;;;;;21.38;10.73;;;-6.40;1.00;;;;;;7381536;19;20020;-69
2024/01/09 06:48:09;;;;;;;26.33;11.27;;;-6.40;1.00;;;;;;7380331;19;20082;-69
2024/01/09 06:50:39;;;;;;;25.10;11.15;;;-6.40;1.00;;;;;;7379746;19;20118;-70
2024/01/09 06:53:09;;;;;;;21.85;10.63;;;-6.30;1.00;;;;;;7379821;19;20011;-69
2024/01/09 06:55:39;;;;;;;27.33;11.70;;;-6.20;1.00;;;;;;7378532;19;20081;-69
2024/01/09 06:58:12;;;;;;;24.70;11.73;;;-6.20;1.00;;;;;;7385392;19;20018;-69
2024/01/09 07:00:42;;;;;;;29.83;10.93;;;-6.30;1.00;;;;;;7383054;19;20037;-70
2024/01/09 07:03:17;;;;;;;24.77;11.30;;;-6.30;1.00;;;;;;7380051;19;20006;-69
2024/01/09 07:05:50;;;;;;;21.60;9.57;;;-6.20;1.00;;;;;;7380281;19;20009;-69
2024/01/09 07:08:20;;;;;;;23.23;10.35;;;-6.20;1.00;;;;;;7378120;19;20013;-69
2024/01/09 07:10:50;;;;;;;24.23;10.60;;;-6.30;1.00;;;;;;7376674;19;20040;-69
2024/01/09 07:13:20;;;;;;;22.52;10.85;;;-6.20;1.00;;;;;;7378789;19;20471;-69
2024/01/09 07:15:50;;;;;;;33.63;12.57;;;-6.20;1.00;;;;;;7377059;19;20021;-68
2024/01/09 07:18:24;;;;;;;21.27;10.80;;;-6.20;1.00;;;;;;7379741;19;20015;-69
2024/01/09 07:20:54;;;;;;;22.52;9.65;;;-6.10;1.00;;;;;;7375198;19;20019;-69
2024/01/09 07:23:24;;;;;;;27.23;11.05;;;-6.10;1.00;;;;;;7378044;19;20018;-68
2024/01/09 07:25:55;;;;;;;26.80;12.23;;;-6.00;1.00;;;;;;7377848;19;20010;-68
2024/01/09 07:28:25;;;;;;;21.35;10.35;;;-6.10;1.00;;;;;;7379554;19;20031;-69
2024/01/09 07:30:58;;;;;;;23.92;10.60;;;-6.00;1.00;;;;;;7377399;19;20049;-69
2024/01/09 07:33:31;;;;;;;24.52;10.70;;;-6.10;1.00;;;;;;7379854;19;20081;-68
2024/01/09 07:36:02;;;;;;;21.58;10.23;;;-6.10;1.00;;;;;;7378431;19;20078;-69
2024/01/09 07:38:32;;;;;;;21.67;10.68;;;-6.00;1.00;;;;;;7378412;19;20025;-69
2024/01/09 07:41:02;;;;;;;25.88;11.98;;;-5.90;1.00;;;;;;7377400;19;20038;-68
2024/01/09 07:43:32;;;;;;;25.08;12.27;;;-6.00;1.00;;;;;;7379190;19;20467;-70
2024/01/09 07:46:03;;;;;;;26.63;11.90;;;-5.90;1.00;;;;;;7377341;19;20041;-69
2024/01/09 07:48:36;;;;;;;24.20;11.02;;;-5.90;1.00;;;;;;7377557;19;20014;-69
2024/01/09 07:51:06;;;;;;;26.60;9.82;;;-6.00;1.00;;;;;;7374873;19;20010;-69
2024/01/09 07:53:37;;;;;;;22.52;10.90;;;-5.90;1.00;;;;;;7377694;19;20016;-68
2024/01/09 07:56:16;;;;;;;20.48;10.98;;;-5.90;1.00;;;;;;7377084;19;20006;-70
2024/01/09 07:58:47;;;;;;;22.67;10.90;;;-5.80;1.00;;;;;;7376672;19;20014;-70
2024/01/09 08:01:18;;;;;;;21.98;10.82;;;-5.70;1.00;;;;;;7377553;19;20010;-69
2024/01/09 08:03:51;;;;;;;24.50;11.18;;;-5.60;1.00;;;;;;7377261;19;20021;-68
2024/01/09 08:06:21;;;;;;;25.80;11.18;;;-5.60;1.00;;;;;;7372252;19;20010;-69
2024/01/09 08:08:51;;;;;;;21.75;10.98;;;-5.70;1.00;;;;;;7376236;19;20515;-69
2024/01/09 08:11:22;;;;;;;22.55;11.85;;;-5.70;1.00;;;;;;7377670;19;20475;-69
2024/01/09 08:13:52;;;;;;;29.50;11.57;;;-5.60;1.00;;;;;;7375953;19;20010;-68
2024/01/09 08:16:22;;;;;;;21.52;10.32;;;-5.40;1.00;;;;;;7377927;19;20013;-68
2024/01/09 08:18:55;;;;;;;23.40;11.68;;;-5.40;1.00;;;;;;7375124;19;20102;-69
2024/01/09 08:21:25;;;;;;;25.20;12.05;;;-5.40;1.00;;;;;;7370050;19;20027;-69
2024/01/09 08:23:55;;;;;;;28.40;14.10;;;-5.30;1.00;;;;;;7376441;19;20011;-68
2024/01/09 08:26:25;;;;;;;26.45;12.02;;;-5.20;1.00;;;;;;7375690;19;20108;-70
2024/01/09 08:28:55;;;;;;;25.58;12.02;;;-5.20;1.00;;;;;;7375632;19;20006;-69
2024/01/09 08:31:25;;;;;;;25.77;11.70;;;-5.20;1.00;;;;;;7376715;19;20014;-68
2024/01/09 08:33:58;;;;;;;22.33;9.48;;;-5.10;1.00;;;;;;7375431;19;20013;-69
2024/01/09 08:36:28;;;;;;;20.90;11.60;;;-5.10;1.00;;;;;;7377674;19;20070;-68
2024/01/09 08:38:59;;;;;;;24.40;11.73;;;-5.00;1.00;;;;;;7376136;19;20014;-69
2024/01/09 08:41:29;;;;;;;23.88;12.77;;;-4.80;1.00;;;;;;7379529;19;20047;-69
2024/01/09 08:43:59;;;;;;;23.92;12.07;;;-4.70;1.00;;;;;;7375967;19;20760;-69
2024/01/09 08:46:29;;;;;;;24.90;11.60;;;-4.70;1.00;;;;;;7376369;19;20094;-69
2024/01/09 08:49:01;;;;;;;24.33;10.68;;;-4.60;1.00;;;;;;7377314;19;20016;-69
2024/01/09 08:51:32;;;;;;;20.08;9.45;;;-4.60;1.00;;;;;;7378796;19;20470;-69
2024/01/09 08:54:02;;;;;;;26.40;10.75;;;-4.60;1.00;;;;;;7376938;19;20010;-69
2024/01/09 08:56:32;;;;;;;22.48;10.57;;;-4.50;1.00;;;;;;7376384;19;20003;-69
2024/01/09 08:59:02;;;;;;;24.00;10.32;;;-4.40;1.00;;;;;;7376269;19;20015;-68
2024/01/09 09:01:35;;;;;;;22.23;10.45;;;-4.30;1.00;;;;;;7375991;19;20014;-68
2024/01/09 09:04:08;;;;;;;16.98;8.50;;;-4.30;1.00;;;;;;7375729;19;20038;-69
2024/01/09 09:06:38;;;;;;;21.38;10.60;;;-4.20;1.00;;;;;;7381933;19;20035;-68
2024/01/09 09:09:09;;;;;;;19.38;10.88;;;-4.30;1.00;;;;;;7382163;19;20011;-68
2024/01/09 09:11:39;;;;;;;19.05;9.52;;;-4.20;1.00;;;;;;7384540;19;20021;-68
2024/01/09 09:14:09;;;;;;;24.85;10.77;;;-4.10;1.00;;;;;;7383265;19;20098;-68
2024/01/09 09:16:40;;;;;;;22.60;9.93;;;-4.10;1.00;;;;;;7383290;19;20007;-69
2024/01/09 09:19:17;;;;;;;19.33;8.50;;;-4.00;1.00;;;;;;7382050;19;20006;-69
2024/01/09 09:21:47;;;;;;;22.45;10.98;;;-4.00;1.00;;;;;;7383756;19;20018;-68
2024/01/09 09:24:17;;;;;;;17.75;9.90;;;-3.90;1.00;;;;;;7386049;19;20006;-69
2024/01/09 09:26:47;;;;;;;21.48;9.88;;;-3.90;1.00;;;;;;7387214;19;20017;-68
2024/01/09 09:29:18;;;;;;;19.65;9.77;;;-3.90;1.00;;;;;;7382217;19;20011;-69
2024/01/09 09:32:05;;;;;;;18.13;8.77;;;-3.90;1.00;;;;;;6872730;19;2004223;-69
2024/01/09 09:34:41;;;;;;;23.70;9.80;;;-3.80;1.00;;;;;;7381188;19;20487;-68
2024/01/09 09:37:15;;;;;;;19.27;9.50;;;-3.80;1.00;;;;;;7383174;19;20037;-69
2024/01/09 09:39:46;;;;;;;19.85;10.02;;;-3.80;1.00;;;;;;7381516;19;20047;-68
2024/01/09 09:42:16;;;;;;;17.73;9.48;;;-3.60;1.00;;;;;;7382573;19;20055;-68
2024/01/09 09:44:50;;;;;;;22.15;9.68;;;-3.60;1.00;;;;;;7381814;19;20010;-69
2024/01/09 09:47:21;;;;;;;;;;;-3.50;1.00;;;;;;7385070;19;20018;-69
2024/01/09 09:49:56;;;;;;;21.98;10.05;;;-3.40;1.00;;;;;;7380122;19;20518;-69
2024/01/09 09:52:29;;;;;;;25.77;10.38;;;-3.40;1.00;;;;;;7379882;19;20015;-69
2024/01/09 09:55:00;;;;;;;23.97;9.17;;;-3.50;1.00;;;;;;7380364;19;20030;-68
2024/01/09 09:57:30;;;;;;;19.92;9.07;;;-3.40;1.00;;;;;;7382715;19;20471;-69
2024/01/09 10:00:00;;;;;;;23.02;10.48;;;-3.30;1.00;;;;;;7379965;19;20015;-70
2024/01/09 10:02:35;;;;;;;23.85;10.75;;;-3.30;1.00;;;;;;7381070;19;20022;-68
2024/01/09 10:05:16;;;;;;;19.60;9.82;;;-3.20;1.00;;;;;;7381239;19;20489;-68
2024/01/09 10:07:49;;;;;;;18.80;9.82;;;-3.10;1.00;;;;;;7382218;19;20031;-69
2024/01/09 10:10:21;;;;;;;21.15;10.00;;;-3.10;1.00;;;;;;7382918;19;20024;-68
2024/01/09 10:12:53;;;;;;;20.55;10.02;;;-3.00;1.00;;;;;;7379487;19;20018;-69
2024/01/09 10:15:23;;;;;;;26.08;10.52;;;-3.00;1.00;;;;;;7383171;19;20014;-68
2024/01/09 10:17:54;;;;;;;21.08;10.88;;;-3.10;1.00;;;;;;7378911;19;20015;-68
2024/01/09 10:20:31;;;;;;;20.67;11.68;;;-3.00;1.00;;;;;;7375016;19;20094;-69
2024/01/09 10:23:02;;;;;;;22.75;10.68;;;-2.90;1.00;;;;;;7379372;19;20006;-69
2024/01/09 10:25:34;;;;;;;18.58;10.73;;;-2.70;1.00;;;;;;7380789;19;20014;-69
2024/01/09 10:28:08;;;;;;;18.15;9.73;;;-2.60;1.00;;;;;;7380676;19;20010;-69
2024/01/09 10:30:40;;;;;;;23.98;10.18;;;-2.80;1.00;;;;;;7379526;19;20010;-68
2024/01/09 10:33:13;;;;;;;21.58;11.07;;;-2.60;1.00;;;;;;7379739;19;20066;-68
2024/01/09 10:35:46;;;;;;;19.60;10.57;;;-2.50;1.00;;;;;;7379566;19;20010;-69
2024/01/09 10:38:16;;;;;;;22.45;10.77;;;-2.40;1.00;;;;;;7379694;19;20027;-68
2024/01/09 10:40:47;;;;;;;20.45;11.10;;;-2.50;1.00;;;;;;7377834;19;20018;-69
2024/01/09 10:43:19;;;;;;;21.88;10.32;;;-2.50;1.00;;;;;;7378312;19;20030;-68
2024/01/09 10:45:52;;;;;;;26.33;10.40;;;-2.40;1.00;;;;;;7378049;19;20006;-69
2024/01/09 10:48:23;;;;;;;20.52;10.77;;;-2.40;1.00;;;;;;7380022;19;20035;-68
2024/01/09 10:50:58;;;;;;;21.08;10.27;;;-2.30;1.00;;;;;;7375686;19;20483;-68
2024/01/09 10:53:31;;;;;;;20.92;9.48;;;-2.20;1.00;;;;;;7378068;19;20010;-68
2024/01/09 10:56:03;;;;;;;19.92;10.82;;;-2.10;1.00;;;;;;7378415;19;20700;-67
2024/01/09 10:58:33;;;;;;;20.17;10.35;;;-2.10;1.00;;;;;;7379579;19;20018;-69
2024/01/09 11:01:03;;;;;;;18.60;10.43;;;-2.10;1.00;;;;;;7378585;19;20136;-68
2024/01/09 11:03:34;;;;;;;20.73;10.43;;;-2.00;1.00;;;;;;7379119;19;20015;-69
2024/01/09 11:06:08;;;;;;;20.13;10.88;;;-1.90;1.00;;;;;;7379650;19;20379;-69
2024/01/09 11:08:39;;;;;;;18.65;9.80;;;-1.90;1.00;;;;;;7378207;19;20117;-69
2024/01/09 11:11:13;;;;;;;20.25;10.52;;;-1.90;1.00;;;;;;7378558;19;20461;-69
2024/01/09 11:13:47;;;;;;;21.20;11.80;;;-1.90;1.00;;;;;;7378648;19;20015;-69
2024/01/09 11:16:20;;;;;;;18.05;10.13;;;-1.90;1.00;;;;;;7379546;19;20034;-69
2024/01/09 11:18:53;;;;;;;20.88;11.07;;;-1.70;1.00;;;;;;7377295;19;20518;-68
2024/01/09 11:21:28;;;;;;;22.63;10.95;;;-1.60;1.00;;;;;;7377582;19;20011;-69
2024/01/09 11:24:00;;;;;;;20.80;11.80;;;-1.60;1.00;;;;;;7374697;19;20471;-68
2024/01/09 11:26:32;;;;;;;21.73;12.95;;;-1.80;1.00;;;;;;7378911;19;20015;-69
2024/01/09 11:29:06;;;;;;;17.75;10.23;;;-1.60;1.00;;;;;;7378230;19;20060;-68
2024/01/09 11:31:36;;;;;;;18.67;10.27;;;-1.70;1.00;;;;;;7379937;19;20014;-68
2024/01/09 11:34:07;;;;;;;19.15;10.90;;;-1.60;1.00;;;;;;7377770;19;20017;-69
2024/01/09 11:36:41;;;;;;;16.52;9.02;;;-1.40;1.00;;;;;;7379592;19;20018;-69
2024/01/09 11:39:14;;;;;;;18.65;10.75;;;-1.50;1.00;;;;;;7379463;19;20015;-70
2024/01/09 11:41:46;;;;;;;20.20;9.65;;;-1.50;1.00;;;;;;7379911;19;20041;-69
2024/01/09 11:44:17;;;;;;;20.95;11.32;;;-1.40;1.00;;;;;;7380032;19;20458;-68
2024/01/09 11:46:50;;;;;;;19.48;10.63;;;-1.40;1.00;;;;;;7380089;19;20026;-69
2024/01/09 11:49:20;;;;;;;21.77;11.02;;;-1.30;1.00;;;;;;7381719;19;20035;-69
2024/01/09 11:51:53;;;;;;;19.17;10.90;;;-1.30;1.00;;;;;;7380923;19;20018;-69
2024/01/09 11:54:23;;;;;;;18.02;10.48;;;-1.30;1.00;;;;;;7383682;19;20010;-69
2024/01/09 11:56:54;;;;;;;22.20;12.05;;;-1.30;1.00;;;;;;7379632;19;20014;-68
2024/01/09 11:59:23;;;;;;;17.88;10.30;;;-1.10;1.00;;;;;;7379179;19;20432;-69
2024/01/09 12:01:54;;;;;;;19.40;10.70;;;-1.20;1.00;;;;;;7381033;19;20015;-67
2024/01/09 12:04:25;;;;;;;18.50;10.13;;;-1.10;1.00;;;;;;7378305;19;20010;-68
2024/01/09 12:06:58;;;;;;;18.15;10.65;;;-0.90;1.00;;;;;;7375884;19;20006;-69
2024/01/09 12:09:28;;;;;;;17.38;10.05;;;-1.00;1.00;;;;;;7371160;19;20045;-70
2024/01/09 12:11:59;;;;;;;16.90;9.95;;;-1.00;1.00;;;;;;7378066;19;20010;-68
2024/01/09 12:14:29;;;;;;;19.60;11.05;;;-1.00;1.00;;;;;;7378393;19;20030;-69
2024/01/09 12:16:59;;;;;;;18.60;9.23;;;-1.00;1.00;;;;;;7378685;19;20101;-70
2024/01/09 12:19:31;;;;;;;17.02;10.20;;;-1.00;1.00;;;;;;7377581;19;20011;-69
2024/01/09 12:22:04;;;;;;;20.85;10.68;;;-0.90;1.00;;;;;;7378076;19;20007;-68
2024/01/09 12:24:34;;;;;;;16.05;9.80;;;-0.80;1.00;;;;;;7378405;19;20093;-68
2024/01/09 12:27:05;;;;;;;18.95;10.48;;;-0.80;1.00;;;;;;7377896;19;20018;-67
2024/01/09 12:29:35;;;;;;;19.40;10.60;;;-0.80;1.00;;;;;;7377238;19;20111;-69
2024/01/09 12:32:06;;;;;;;22.88;10.77;;;-0.60;1.00;;;;;;7378559;19;20032;-70
2024/01/09 12:34:37;;;;;;;17.52;10.40;;;-0.60;1.00;;;;;;7377585;19;20015;-69
2024/01/09 12:37:11;;;;;;;18.25;10.38;;;-0.60;1.00;;;;;;7378006;19;20022;-68
2024/01/09 12:39:42;;;;;;;19.17;10.73;;;-0.60;1.00;;;;;;7376800;19;20100;-69
2024/01/09 12:42:16;;;;;;;18.00;9.35;;;-0.50;1.00;;;;;;7383130;19;20260;-69
2024/01/09 12:44:46;;;;;;;19.23;11.23;;;-0.50;1.00;;;;;;7384213;19;20027;-69
2024/01/09 12:47:17;;;;;;;15.65;9.98;;;-0.50;1.00;;;;;;7384635;19;20386;-69
2024/01/09 12:49:48;;;;;;;20.77;11.45;;;-0.50;1.00;;;;;;7385761;19;20049;-70
2024/01/09 12:52:36;;;;;;;17.48;10.02;;;-0.40;1.00;;;;;;7383726;19;20097;-70
2024/01/09 12:55:08;;;;;;;16.77;10.13;;;-0.40;1.00;;;;;;7383997;19;20075;-69
2024/01/09 12:57:38;;;;;;;16.42;10.50;;;-0.40;1.00;;;;;;7383533;19;20022;-68